sensor_id;sensor_type;location;lat;lon;timestamp;pressure;altitude;pressure_sealevel;temperature;humidity
75051;BME280;63628;47.656;11.310;2022-11-15T00:00:55;94735.72;;;7.12;74.16
75051;BME280;63628;47.656;11.310;2022-11-15T00:03:26;94748.38;;;6.97;75.81
75051;BME280;63628;47.656;11.310;2022-11-15T00:05:53;94754.56;;;7.16;75.08
75051;BME280;63628;47.656;11.310;2022-11-15T00:08:20;94741.78;;;7.13;74.83
75051;BME280;63628;47.656;11.310;2022-11-15T00:11:00;94749.69;;;7.19;75.16
75051;BME280;63628;47.656;11.310;2022-11-15T00:13:27;94746.44;;;7.17;75.22
75051;BME280;63628;47.656;11.310;2022-11-15T00:16:00;94761.00;;;3.54;74.66
75051;BME280;63628;47.656;11.310;2022-11-15T00:18:27;94749.91;;;6.15;79.28
75051;BME280;63628;47.656;11.310;2022-11-15T00:20:53;94730.25;;;6.82;76.06
75051;BME280;63628;47.656;11.310;2022-11-15T00:23:20;94745.91;;;7.02;75.63
75051;BME280;63628;47.656;11.310;2022-11-15T00:25:46;94744.25;;;7.08;75.37
75051;BME280;63628;47.656;11.310;2022-11-15T00:28:13;94738.34;;;7.12;74.72
75051;BME280;63628;47.656;11.310;2022-11-15T00:30:39;94740.41;;;7.10;74.76
75051;BME280;63628;47.656;11.310;2022-11-15T00:33:06;94734.91;;;7.18;74.57
75051;BME280;63628;47.656;11.310;2022-11-15T00:35:34;94722.41;;;7.07;74.89
75051;BME280;63628;47.656;11.310;2022-11-15T00:38:01;94728.63;;;7.13;75.23
75051;BME280;63628;47.656;11.310;2022-11-15T00:40:28;94724.44;;;6.67;76.60
75051;BME280;63628;47.656;11.310;2022-11-15T00:42:55;94719.22;;;6.98;75.02
75051;BME280;63628;47.656;11.310;2022-11-15T00:45:22;94733.66;;;3.28;73.00
75051;BME280;63628;47.656;11.310;2022-11-15T00:47:49;94712.34;;;5.16;82.48
75051;BME280;63628;47.656;11.310;2022-11-15T00:50:16;94723.09;;;6.45;77.49
75051;BME280;63628;47.656;11.310;2022-11-15T00:52:43;94715.47;;;6.81;75.60
75051;BME280;63628;47.656;11.310;2022-11-15T00:55:14;94705.47;;;6.00;65.78
75051;BME280;63628;47.656;11.310;2022-11-15T00:57:41;94708.75;;;6.47;77.09
75051;BME280;63628;47.656;11.310;2022-11-15T01:00:08;94726.63;;;3.57;74.83
75051;BME280;63628;47.656;11.310;2022-11-15T01:02:35;94711.69;;;4.74;68.45
75051;BME280;63628;47.656;11.310;2022-11-15T01:05:01;94706.88;;;5.83;80.04
75051;BME280;63628;47.656;11.310;2022-11-15T01:07:28;94694.78;;;4.90;80.61
75051;BME280;63628;47.656;11.310;2022-11-15T01:09:55;94680.31;;;6.31;77.16
75051;BME280;63628;47.656;11.310;2022-11-15T01:12:21;94692.47;;;6.70;76.02
75051;BME280;63628;47.656;11.310;2022-11-15T01:14:49;94677.69;;;6.76;75.83
75051;BME280;63628;47.656;11.310;2022-11-15T01:17:15;94666.16;;;6.77;73.97
75051;BME280;63628;47.656;11.310;2022-11-15T01:19:42;94675.94;;;6.63;76.08
75051;BME280;63628;47.656;11.310;2022-11-15T01:22:08;94682.81;;;4.06;69.67
75051;BME280;63628;47.656;11.310;2022-11-15T01:24:35;94669.50;;;5.81;79.95
75051;BME280;63628;47.656;11.310;2022-11-15T01:27:01;94676.91;;;4.45;68.39
75051;BME280;63628;47.656;11.310;2022-11-15T01:29:28;94664.28;;;5.94;79.02
75051;BME280;63628;47.656;11.310;2022-11-15T01:31:54;94676.19;;;3.69;70.81
75051;BME280;63628;47.656;11.310;2022-11-15T01:34:21;94653.22;;;5.46;81.11
75051;BME280;63628;47.656;11.310;2022-11-15T01:36:47;94650.28;;;6.07;71.78
75051;BME280;63628;47.656;11.310;2022-11-15T01:39:13;94658.06;;;5.03;77.12
75051;BME280;63628;47.656;11.310;2022-11-15T01:41:41;94657.50;;;2.89;81.66
75051;BME280;63628;47.656;11.310;2022-11-15T01:47:11;94639.63;;;6.40;76.92
75051;BME280;63628;47.656;11.310;2022-11-15T01:49:45;94644.81;;;4.24;71.30
75051;BME280;63628;47.656;11.310;2022-11-15T01:52:18;94636.88;;;5.51;80.51
75051;BME280;63628;47.656;11.310;2022-11-15T01:54:47;94643.59;;;3.72;73.04
75051;BME280;63628;47.656;11.310;2022-11-15T01:57:15;94648.88;;;4.33;83.44
75051;BME280;63628;47.656;11.310;2022-11-15T01:59:43;94643.59;;;6.18;78.17
75051;BME280;63628;47.656;11.310;2022-11-15T02:02:11;94631.41;;;6.30;76.97
75051;BME280;63628;47.656;11.310;2022-11-15T02:04:42;94626.69;;;6.39;76.18
75051;BME280;63628;47.656;11.310;2022-11-15T02:07:10;94635.94;;;6.48;76.00
75051;BME280;63628;47.656;11.310;2022-11-15T02:09:38;94634.75;;;6.50;75.89
75051;BME280;63628;47.656;11.310;2022-11-15T02:12:06;94632.13;;;6.50;76.28
75051;BME280;63628;47.656;11.310;2022-11-15T02:14:34;94632.19;;;6.30;75.84
75051;BME280;63628;47.656;11.310;2022-11-15T02:33:12;94619.75;;;6.57;76.06
75051;BME280;63628;47.656;11.310;2022-11-15T02:38:45;94616.53;;;1.74;76.51
75051;BME280;63628;47.656;11.310;2022-11-15T02:41:39;94617.81;;;2.78;76.11
75051;BME280;63628;47.656;11.310;2022-11-15T02:44:23;94613.31;;;3.56;75.03
75051;BME280;63628;47.656;11.310;2022-11-15T02:46:58;94621.94;;;2.66;82.68
75051;BME280;63628;47.656;11.310;2022-11-15T02:49:50;94602.31;;;5.60;80.27
75051;BME280;63628;47.656;11.310;2022-11-15T02:52:18;94598.56;;;6.08;77.72
75051;BME280;63628;47.656;11.310;2022-11-15T02:54:56;94599.56;;;3.89;79.15
75051;BME280;63628;47.656;11.310;2022-11-15T02:57:49;94591.16;;;5.91;78.73
75051;BME280;63628;47.656;11.310;2022-11-15T03:00:19;94581.97;;;6.14;77.32
75051;BME280;63628;47.656;11.310;2022-11-15T03:02:53;94581.91;;;6.27;76.79
75051;BME280;63628;47.656;11.310;2022-11-15T03:05:35;94580.25;;;6.32;76.32
75051;BME280;63628;47.656;11.310;2022-11-15T03:11:03;94580.78;;;6.10;77.42
75051;BME280;63628;47.656;11.310;2022-11-15T03:14:00;94583.13;;;6.24;75.68
75051;BME280;63628;47.656;11.310;2022-11-15T03:17:23;94575.84;;;6.26;76.77
75051;BME280;63628;47.656;11.310;2022-11-15T03:19:53;94580.09;;;3.50;73.50
75051;BME280;63628;47.656;11.310;2022-11-15T03:22:23;94576.25;;;5.72;79.25
75051;BME280;63628;47.656;11.310;2022-11-15T03:24:53;94575.06;;;6.19;76.86
75051;BME280;63628;47.656;11.310;2022-11-15T03:27:23;94568.81;;;3.97;71.84
75051;BME280;63628;47.656;11.310;2022-11-15T03:29:55;94562.16;;;5.53;79.25
75051;BME280;63628;47.656;11.310;2022-11-15T03:32:26;94566.59;;;3.94;77.60
75051;BME280;63628;47.656;11.310;2022-11-15T03:35:00;94559.63;;;5.85;78.46
75051;BME280;63628;47.656;11.310;2022-11-15T03:37:36;94565.78;;;6.17;77.06
75051;BME280;63628;47.656;11.310;2022-11-15T03:40:04;94556.03;;;6.24;76.74
75051;BME280;63628;47.656;11.310;2022-11-15T03:43:11;94552.19;;;6.26;76.14
75051;BME280;63628;47.656;11.310;2022-11-15T03:45:43;94554.59;;;6.28;76.55
75051;BME280;63628;47.656;11.310;2022-11-15T03:48:13;94550.75;;;6.30;75.78
75051;BME280;63628;47.656;11.310;2022-11-15T03:50:42;94557.22;;;6.28;76.51
75051;BME280;63628;47.656;11.310;2022-11-15T03:53:09;94549.94;;;6.30;75.72
75051;BME280;63628;47.656;11.310;2022-11-15T03:55:36;94548.91;;;6.31;75.65
75051;BME280;63628;47.656;11.310;2022-11-15T03:58:02;94540.50;;;6.22;76.01
75051;BME280;63628;47.656;11.310;2022-11-15T04:00:29;94546.50;;;6.29;76.48
75051;BME280;63628;47.656;11.310;2022-11-15T04:02:55;94547.31;;;6.30;76.19
75051;BME280;63628;47.656;11.310;2022-11-15T04:05:22;94542.91;;;6.24;75.72
75051;BME280;63628;47.656;11.310;2022-11-15T04:07:48;94549.84;;;6.12;76.27
75051;BME280;63628;47.656;11.310;2022-11-15T04:10:15;94534.81;;;5.16;78.19
75051;BME280;63628;47.656;11.310;2022-11-15T04:12:44;94537.19;;;6.02;76.39
75051;BME280;63628;47.656;11.310;2022-11-15T04:15:19;94547.94;;;5.87;76.96
75051;BME280;63628;47.656;11.310;2022-11-15T04:17:48;94541.38;;;6.10;76.40
75051;BME280;63628;47.656;11.310;2022-11-15T04:20:20;94539.47;;;6.23;76.17
75051;BME280;63628;47.656;11.310;2022-11-15T04:23:14;94551.13;;;2.82;81.98
75051;BME280;63628;47.656;11.310;2022-11-15T04:26:18;94543.06;;;5.84;78.04
75051;BME280;63628;47.656;11.310;2022-11-15T04:28:45;94526.72;;;5.95;76.78
75051;BME280;63628;47.656;11.310;2022-11-15T04:31:30;94548.88;;;2.79;72.29
75051;BME280;63628;47.656;11.310;2022-11-15T04:33:57;94535.09;;;5.59;78.89
75051;BME280;63628;47.656;11.310;2022-11-15T04:36:23;94535.97;;;3.40;69.07
75051;BME280;63628;47.656;11.310;2022-11-15T04:39:08;94547.50;;;5.32;79.19
75051;BME280;63628;47.656;11.310;2022-11-15T04:41:35;94535.41;;;5.83;77.14
75051;BME280;63628;47.656;11.310;2022-11-15T04:44:02;94529.28;;;6.02;76.82
75051;BME280;63628;47.656;11.310;2022-11-15T04:46:28;94533.91;;;6.07;76.79
75051;BME280;63628;47.656;11.310;2022-11-15T04:48:55;94530.06;;;6.09;76.08
75051;BME280;63628;47.656;11.310;2022-11-15T04:51:24;94539.47;;;3.61;68.85
75051;BME280;63628;47.656;11.310;2022-11-15T04:53:51;94530.88;;;5.52;78.61
75051;BME280;63628;47.656;11.310;2022-11-15T04:56:18;94517.03;;;5.89;76.60
75051;BME280;63628;47.656;11.310;2022-11-15T04:58:45;94502.91;;;5.32;67.27
75051;BME280;63628;47.656;11.310;2022-11-15T05:01:13;94516.91;;;4.34;82.58
75051;BME280;63628;47.656;11.310;2022-11-15T05:03:41;94518.72;;;3.46;83.38
75051;BME280;63628;47.656;11.310;2022-11-15T05:06:27;94516.13;;;4.73;70.20
75051;BME280;63628;47.656;11.310;2022-11-15T05:08:53;94502.50;;;5.29;78.50
75051;BME280;63628;47.656;11.310;2022-11-15T05:11:20;94511.84;;;5.05;76.78
75051;BME280;63628;47.656;11.310;2022-11-15T05:13:47;94483.91;;;5.82;76.63
75051;BME280;63628;47.656;11.310;2022-11-15T05:16:13;94503.97;;;3.93;80.66
75051;BME280;63628;47.656;11.310;2022-11-15T05:18:40;94494.25;;;5.70;77.57
75051;BME280;63628;47.656;11.310;2022-11-15T05:21:09;94489.19;;;5.30;78.86
75051;BME280;63628;47.656;11.310;2022-11-15T05:23:37;94507.41;;;2.42;78.07
75051;BME280;63628;47.656;11.310;2022-11-15T05:26:05;94490.56;;;5.39;78.63
75051;BME280;63628;47.656;11.310;2022-11-15T05:28:35;94486.97;;;5.72;76.74
75051;BME280;63628;47.656;11.310;2022-11-15T05:31:07;94482.50;;;5.79;76.47
75051;BME280;63628;47.656;11.310;2022-11-15T05:33:36;94467.69;;;4.89;66.58
75051;BME280;63628;47.656;11.310;2022-11-15T05:36:12;94460.56;;;5.16;79.49
75051;BME280;63628;47.656;11.310;2022-11-15T05:38:39;94468.34;;;4.51;76.61
75051;BME280;63628;47.656;11.310;2022-11-15T05:41:06;94461.38;;;5.67;77.48
75051;BME280;63628;47.656;11.310;2022-11-15T05:43:36;94454.56;;;4.95;77.43
75051;BME280;63628;47.656;11.310;2022-11-15T05:46:04;94465.06;;;3.15;81.45
75051;BME280;63628;47.656;11.310;2022-11-15T05:48:32;94454.25;;;5.36;78.08
75051;BME280;63628;47.656;11.310;2022-11-15T05:50:59;94458.38;;;1.67;74.70
75051;BME280;63628;47.656;11.310;2022-11-15T05:53:26;94461.66;;;2.18;73.24
75051;BME280;63628;47.656;11.310;2022-11-15T05:55:53;94463.44;;;3.69;84.20
75051;BME280;63628;47.656;11.310;2022-11-15T05:58:20;94453.09;;;5.19;78.48
75051;BME280;63628;47.656;11.310;2022-11-15T06:00:46;94453.44;;;4.65;79.28
75051;BME280;63628;47.656;11.310;2022-11-15T06:03:13;94446.50;;;4.97;78.67
75051;BME280;63628;47.656;11.310;2022-11-15T06:05:40;94447.38;;;5.42;77.40
75051;BME280;63628;47.656;11.310;2022-11-15T06:08:06;94463.09;;;4.71;80.09
75051;BME280;63628;47.656;11.310;2022-11-15T06:10:33;94456.50;;;5.33;78.12
75051;BME280;63628;47.656;11.310;2022-11-15T06:13:01;94456.19;;;5.54;76.83
75051;BME280;63628;47.656;11.310;2022-11-15T06:15:28;94455.34;;;5.60;77.02
75051;BME280;63628;47.656;11.310;2022-11-15T06:17:58;94450.66;;;5.69;76.19
75051;BME280;63628;47.656;11.310;2022-11-15T06:20:25;94449.63;;;5.70;77.05
75051;BME280;63628;47.656;11.310;2022-11-15T06:23:03;94434.13;;;5.62;76.06
75051;BME280;63628;47.656;11.310;2022-11-15T06:25:30;94471.28;;;2.73;76.14
75051;BME280;63628;47.656;11.310;2022-11-15T06:27:58;94471.78;;;2.90;82.76
75051;BME280;63628;47.656;11.310;2022-11-15T06:30:26;94460.75;;;5.14;79.23
75051;BME280;63628;47.656;11.310;2022-11-15T06:33:03;94469.53;;;5.46;77.27
75051;BME280;63628;47.656;11.310;2022-11-15T06:35:32;94467.06;;;5.58;77.46
75051;BME280;63628;47.656;11.310;2022-11-15T06:38:07;94472.09;;;5.59;77.18
75051;BME280;63628;47.656;11.310;2022-11-15T06:40:38;94470.06;;;5.61;76.07
75051;BME280;63628;47.656;11.310;2022-11-15T06:43:05;94462.59;;;5.65;76.99
75051;BME280;63628;47.656;11.310;2022-11-15T06:45:32;94462.59;;;5.65;76.33
75051;BME280;63628;47.656;11.310;2022-11-15T06:47:58;94470.22;;;5.73;76.04
75051;BME280;63628;47.656;11.310;2022-11-15T06:50:25;94462.75;;;5.70;76.88
75051;BME280;63628;47.656;11.310;2022-11-15T06:52:51;94459.13;;;5.71;76.58
75051;BME280;63628;47.656;11.310;2022-11-15T06:55:18;94463.34;;;5.72;75.69
75051;BME280;63628;47.656;11.310;2022-11-15T06:57:49;94450.66;;;5.69;76.17
75051;BME280;63628;47.656;11.310;2022-11-15T07:00:18;94467.06;;;3.81;81.52
75051;BME280;63628;47.656;11.310;2022-11-15T07:02:45;94458.16;;;5.21;73.73
75051;BME280;63628;47.656;11.310;2022-11-15T07:05:12;94453.84;;;3.96;74.54
75051;BME280;63628;47.656;11.310;2022-11-15T07:07:39;94458.75;;;2.34;76.06
75051;BME280;63628;47.656;11.310;2022-11-15T07:10:06;94459.03;;;2.74;77.22
75051;BME280;63628;47.656;11.310;2022-11-15T07:12:33;94453.56;;;4.96;79.68
75051;BME280;63628;47.656;11.310;2022-11-15T07:15:00;94435.50;;;5.33;76.84
75051;BME280;63628;47.656;11.310;2022-11-15T07:17:26;94447.53;;;5.47;76.41
75051;BME280;63628;47.656;11.310;2022-11-15T07:19:53;94431.63;;;5.42;75.77
75051;BME280;63628;47.656;11.310;2022-11-15T07:22:19;94449.31;;;5.53;76.78
75051;BME280;63628;47.656;11.310;2022-11-15T07:24:45;94440.22;;;5.56;76.16
75051;BME280;63628;47.656;11.310;2022-11-15T07:27:12;94429.31;;;5.59;76.37
75051;BME280;63628;47.656;11.310;2022-11-15T07:29:38;94442.75;;;4.66;72.99
75051;BME280;63628;47.656;11.310;2022-11-15T07:32:05;94431.69;;;4.58;80.04
75051;BME280;63628;47.656;11.310;2022-11-15T07:34:31;94434.66;;;5.39;77.17
75051;BME280;63628;47.656;11.310;2022-11-15T07:36:58;94435.56;;;5.58;75.35
75051;BME280;63628;47.656;11.310;2022-11-15T07:39:24;94430.38;;;5.51;76.83
75051;BME280;63628;47.656;11.310;2022-11-15T07:41:50;94428.22;;;6.11;76.75
75051;BME280;63628;47.656;11.310;2022-11-15T07:44:37;94413.69;;;5.70;76.28
75051;BME280;63628;47.656;11.310;2022-11-15T07:47:03;94415.13;;;5.66;76.14
75051;BME280;63628;47.656;11.310;2022-11-15T07:49:30;94421.66;;;6.45;74.85
75051;BME280;63628;47.656;11.310;2022-11-15T07:51:56;94422.53;;;6.39;77.89
75051;BME280;63628;47.656;11.310;2022-11-15T07:54:23;94411.38;;;6.19;74.49
75051;BME280;63628;47.656;11.310;2022-11-15T07:56:49;94418.25;;;5.82;75.78
75051;BME280;63628;47.656;11.310;2022-11-15T07:59:16;94416.47;;;7.67;79.66
75051;BME280;63628;47.656;11.310;2022-11-15T08:01:42;94413.72;;;7.31;72.97
75051;BME280;63628;47.656;11.310;2022-11-15T08:04:10;94429.72;;;6.00;75.44
75051;BME280;63628;47.656;11.310;2022-11-15T08:06:37;94414.59;;;5.96;75.52
75051;BME280;63628;47.656;11.310;2022-11-15T08:09:04;94407.47;;;10.18;69.92
75051;BME280;63628;47.656;11.310;2022-11-15T08:11:30;94412.81;;;7.38;73.65
75051;BME280;63628;47.656;11.310;2022-11-15T08:13:58;94416.03;;;6.42;74.22
75051;BME280;63628;47.656;11.310;2022-11-15T08:16:24;94412.28;;;6.06;75.68
75051;BME280;63628;47.656;11.310;2022-11-15T08:18:51;94409.69;;;6.92;72.53
75051;BME280;63628;47.656;11.310;2022-11-15T08:21:19;94396.84;;;6.16;75.00
75051;BME280;63628;47.656;11.310;2022-11-15T08:23:46;94386.97;;;11.58;66.29
75051;BME280;63628;47.656;11.310;2022-11-15T08:26:12;94383.34;;;10.43;61.80
75051;BME280;63628;47.656;11.310;2022-11-15T08:28:39;94371.63;;;12.73;63.55
75051;BME280;63628;47.656;11.310;2022-11-15T08:31:05;94368.50;;;14.06;57.34
75051;BME280;63628;47.656;11.310;2022-11-15T08:33:32;94368.72;;;13.89;57.70
75051;BME280;63628;47.656;11.310;2022-11-15T08:36:00;94365.34;;;14.75;56.63
75051;BME280;63628;47.656;11.310;2022-11-15T08:38:27;94362.53;;;15.41;55.91
75051;BME280;63628;47.656;11.310;2022-11-15T08:41:01;94355.31;;;16.01;52.30
75051;BME280;63628;47.656;11.310;2022-11-15T08:43:28;94358.16;;;14.55;56.25
75051;BME280;63628;47.656;11.310;2022-11-15T08:45:56;94352.13;;;15.39;56.00
75051;BME280;63628;47.656;11.310;2022-11-15T08:48:22;94355.03;;;16.46;49.47
75051;BME280;63628;47.656;11.310;2022-11-15T08:50:53;94352.19;;;16.33;51.61
75051;BME280;63628;47.656;11.310;2022-11-15T08:53:20;94353.00;;;16.62;50.10
75051;BME280;63628;47.656;11.310;2022-11-15T08:55:47;94357.88;;;11.36;59.28
75051;BME280;63628;47.656;11.310;2022-11-15T08:58:13;94358.06;;;9.73;65.33
75051;BME280;63628;47.656;11.310;2022-11-15T09:00:40;94365.44;;;8.91;69.90
75051;BME280;63628;47.656;11.310;2022-11-15T09:03:06;94344.56;;;12.38;65.35
75051;BME280;63628;47.656;11.310;2022-11-15T09:05:35;94356.31;;;8.58;68.78
75051;BME280;63628;47.656;11.310;2022-11-15T09:08:02;94344.22;;;8.16;71.48
75051;BME280;63628;47.656;11.310;2022-11-15T09:10:49;94343.56;;;10.38;74.85
75051;BME280;63628;47.656;11.310;2022-11-15T09:13:16;94342.63;;;8.85;68.86
75051;BME280;63628;47.656;11.310;2022-11-15T09:15:42;94339.78;;;8.63;75.05
75051;BME280;63628;47.656;11.310;2022-11-15T09:18:09;94340.72;;;8.34;71.21
75051;BME280;63628;47.656;11.310;2022-11-15T09:20:35;94343.72;;;8.49;71.26
75051;BME280;63628;47.656;11.310;2022-11-15T09:23:03;94352.69;;;10.30;72.18
75051;BME280;63628;47.656;11.310;2022-11-15T09:25:30;94340.56;;;8.17;75.58
75051;BME280;63628;47.656;11.310;2022-11-15T09:27:57;94345.69;;;8.00;72.75
75051;BME280;63628;47.656;11.310;2022-11-15T09:30:25;94328.31;;;8.34;71.73
75051;BME280;63628;47.656;11.310;2022-11-15T09:32:51;94339.50;;;9.11;80.48
75051;BME280;63628;47.656;11.310;2022-11-15T09:35:18;94334.03;;;8.78;70.31
75051;BME280;63628;47.656;11.310;2022-11-15T09:37:44;94336.94;;;7.76;73.56
75051;BME280;63628;47.656;11.310;2022-11-15T09:40:13;94335.91;;;8.66;77.03
75051;BME280;63628;47.656;11.310;2022-11-15T09:51:04;94302.72;;;17.22;50.24
75051;BME280;63628;47.656;11.310;2022-11-15T09:56:43;94301.53;;;13.26;65.91
75051;BME280;63628;47.656;11.310;2022-11-15T10:04:40;94285.41;;;16.62;54.99
75051;BME280;63628;47.656;11.310;2022-11-15T10:07:20;94267.78;;;13.26;56.15
75051;BME280;63628;47.656;11.310;2022-11-15T10:10:11;94269.66;;;13.31;63.10
75051;BME280;63628;47.656;11.310;2022-11-15T10:12:44;94268.59;;;13.27;56.81
75051;BME280;63628;47.656;11.310;2022-11-15T10:15:15;94246.84;;;13.45;60.22
75051;BME280;63628;47.656;11.310;2022-11-15T10:18:16;94259.09;;;10.92;64.21
75051;BME280;63628;47.656;11.310;2022-11-15T10:20:55;94250.19;;;12.16;61.58
75051;BME280;63628;47.656;11.310;2022-11-15T10:23:24;94253.06;;;9.35;70.09
75051;BME280;63628;47.656;11.310;2022-11-15T10:25:53;94251.06;;;10.43;66.37
75051;BME280;63628;47.656;11.310;2022-11-15T10:28:28;94251.56;;;9.56;69.50
75051;BME280;63628;47.656;11.310;2022-11-15T10:31:00;94235.16;;;10.21;77.41
75051;BME280;63628;47.656;11.310;2022-11-15T10:33:36;94226.41;;;12.26;62.02
75051;BME280;63628;47.656;11.310;2022-11-15T10:41:36;94199.22;;;8.91;71.24
75051;BME280;63628;47.656;11.310;2022-11-15T10:46:34;94196.94;;;8.83;72.97
75051;BME280;63628;47.656;11.310;2022-11-15T10:49:20;94207.13;;;9.53;72.05
75051;BME280;63628;47.656;11.310;2022-11-15T10:51:55;94206.66;;;9.90;69.71
75051;BME280;63628;47.656;11.310;2022-11-15T10:54:23;94189.84;;;10.78;66.18
75051;BME280;63628;47.656;11.310;2022-11-15T10:56:52;94191.31;;;10.91;65.46
75051;BME280;63628;47.656;11.310;2022-11-15T10:59:32;94190.88;;;9.95;70.89
75051;BME280;63628;47.656;11.310;2022-11-15T11:05:01;94190.31;;;9.59;74.19
75051;BME280;63628;47.656;11.310;2022-11-15T11:07:31;94179.25;;;11.96;63.24
75051;BME280;63628;47.656;11.310;2022-11-15T11:10:01;94183.03;;;9.83;70.84
75051;BME280;63628;47.656;11.310;2022-11-15T11:12:30;94161.31;;;10.20;67.78
75051;BME280;63628;47.656;11.310;2022-11-15T11:15:08;94168.78;;;11.15;64.30
75051;BME280;63628;47.656;11.310;2022-11-15T11:26:59;94153.25;;;13.53;55.49
75051;BME280;63628;47.656;11.310;2022-11-15T11:29:20;94147.38;;;14.02;56.00
75051;BME280;63628;47.656;11.310;2022-11-15T11:35:03;94124.34;;;15.45;49.43
75051;BME280;63628;47.656;11.310;2022-11-15T11:43:41;94125.59;;;14.75;50.82
75051;BME280;63628;47.656;11.310;2022-11-15T11:46:31;94117.34;;;14.71;50.13
75051;BME280;63628;47.656;11.310;2022-11-15T11:49:14;94115.75;;;14.70;51.54
75051;BME280;63628;47.656;11.310;2022-11-15T11:51:45;94103.56;;;14.59;49.10
75051;BME280;63628;47.656;11.310;2022-11-15T11:54:32;94107.09;;;14.49;53.72
75051;BME280;63628;47.656;11.310;2022-11-15T11:57:05;94110.56;;;14.40;52.59
75051;BME280;63628;47.656;11.310;2022-11-15T11:59:43;94105.88;;;14.01;51.55
75051;BME280;63628;47.656;11.310;2022-11-15T12:02:19;94107.06;;;14.54;51.89
75051;BME280;63628;47.656;11.310;2022-11-15T12:04:52;94090.47;;;13.93;54.36
75051;BME280;63628;47.656;11.310;2022-11-15T12:07:29;94092.03;;;14.04;53.42
75051;BME280;63628;47.656;11.310;2022-11-15T12:12:58;94097.13;;;13.90;55.99
75051;BME280;63628;47.656;11.310;2022-11-15T12:15:32;94105.16;;;13.40;57.86
75051;BME280;63628;47.656;11.310;2022-11-15T12:18:01;94094.25;;;13.36;57.64
75051;BME280;63628;47.656;11.310;2022-11-15T12:20:37;94090.44;;;13.98;56.46
75051;BME280;63628;47.656;11.310;2022-11-15T12:23:12;94087.75;;;14.08;55.37
75051;BME280;63628;47.656;11.310;2022-11-15T12:25:53;94078.25;;;13.87;53.89
75051;BME280;63628;47.656;11.310;2022-11-15T12:34:02;94086.53;;;13.04;59.47
75051;BME280;63628;47.656;11.310;2022-11-15T12:36:43;94067.63;;;13.61;54.16
75051;BME280;63628;47.656;11.310;2022-11-15T12:39:12;94081.75;;;13.67;53.60
75051;BME280;63628;47.656;11.310;2022-11-15T12:41:43;94085.94;;;12.72;59.98
75051;BME280;63628;47.656;11.310;2022-11-15T12:44:12;94072.59;;;12.41;61.21
75051;BME280;63628;47.656;11.310;2022-11-15T13:02:35;94078.72;;;12.52;60.45
75051;BME280;63628;47.656;11.310;2022-11-15T13:05:25;94074.31;;;13.03;56.03
75051;BME280;63628;47.656;11.310;2022-11-15T13:08:01;94074.25;;;12.83;57.34
75051;BME280;63628;47.656;11.310;2022-11-15T13:10:28;94081.22;;;13.04;56.22
75051;BME280;63628;47.656;11.310;2022-11-15T13:12:56;94076.44;;;13.11;54.89
75051;BME280;63628;47.656;11.310;2022-11-15T13:17:56;94082.47;;;11.56;63.99
75051;BME280;63628;47.656;11.310;2022-11-15T13:20:30;94083.69;;;10.74;68.25
75051;BME280;63628;47.656;11.310;2022-11-15T13:23:12;94086.63;;;10.51;69.27
75051;BME280;63628;47.656;11.310;2022-11-15T13:28:38;94077.59;;;10.25;70.07
75051;BME280;63628;47.656;11.310;2022-11-15T13:31:40;94090.47;;;11.66;63.95
75051;BME280;63628;47.656;11.310;2022-11-15T13:34:20;94094.13;;;12.60;59.15
75051;BME280;63628;47.656;11.310;2022-11-15T13:37:33;94095.22;;;11.22;66.52
75051;BME280;63628;47.656;11.310;2022-11-15T13:40:22;94094.91;;;10.87;69.40
75051;BME280;63628;47.656;11.310;2022-11-15T13:42:49;94097.72;;;11.76;64.52
75051;BME280;63628;47.656;11.310;2022-11-15T13:45:18;94099.59;;;12.28;63.04
75051;BME280;63628;47.656;11.310;2022-11-15T13:47:51;94106.75;;;11.06;67.90
75051;BME280;63628;47.656;11.310;2022-11-15T13:50:20;94110.47;;;11.42;67.32
75051;BME280;63628;47.656;11.310;2022-11-15T13:52:48;94113.22;;;11.57;66.47
75051;BME280;63628;47.656;11.310;2022-11-15T13:55:18;94108.72;;;10.40;70.67
75051;BME280;63628;47.656;11.310;2022-11-15T13:57:48;94117.13;;;10.37;70.52
75051;BME280;63628;47.656;11.310;2022-11-15T14:05:34;94115.22;;;10.54;71.02
75051;BME280;63628;47.656;11.310;2022-11-15T14:08:05;94125.16;;;10.96;68.67
75051;BME280;63628;47.656;11.310;2022-11-15T14:10:42;94115.34;;;10.91;67.47
75051;BME280;63628;47.656;11.310;2022-11-15T14:13:27;94124.91;;;10.22;71.48
75051;BME280;63628;47.656;11.310;2022-11-15T14:15:54;94119.53;;;10.60;71.02
75051;BME280;63628;47.656;11.310;2022-11-15T14:21:10;94129.00;;;10.34;71.85
75051;BME280;63628;47.656;11.310;2022-11-15T14:23:37;94125.63;;;11.15;66.44
75051;BME280;63628;47.656;11.310;2022-11-15T14:26:03;94126.53;;;10.71;69.35
75051;BME280;63628;47.656;11.310;2022-11-15T14:28:37;94124.19;;;10.75;69.68
75051;BME280;63628;47.656;11.310;2022-11-15T14:31:11;94122.97;;;10.39;72.56
75051;BME280;63628;47.656;11.310;2022-11-15T14:33:39;94125.66;;;11.20;68.70
75051;BME280;63628;47.656;11.310;2022-11-15T14:36:18;94118.13;;;11.06;68.63
75051;BME280;63628;47.656;11.310;2022-11-15T14:38:45;94126.66;;;11.46;67.14
75051;BME280;63628;47.656;11.310;2022-11-15T14:41:24;94118.94;;;11.39;67.73
75051;BME280;63628;47.656;11.310;2022-11-15T14:43:51;94128.88;;;10.95;70.63
75051;BME280;63628;47.656;11.310;2022-11-15T14:46:18;94123.78;;;11.15;69.75
75051;BME280;63628;47.656;11.310;2022-11-15T14:48:45;94133.69;;;11.03;68.80
75051;BME280;63628;47.656;11.310;2022-11-15T14:51:13;94121.97;;;10.94;70.12
75051;BME280;63628;47.656;11.310;2022-11-15T14:53:41;94132.09;;;11.02;69.04
75051;BME280;63628;47.656;11.310;2022-11-15T14:56:08;94131.72;;;10.61;70.67
75051;BME280;63628;47.656;11.310;2022-11-15T14:58:35;94132.81;;;10.22;72.36
75051;BME280;63628;47.656;11.310;2022-11-15T15:01:10;94130.59;;;10.13;73.06
75051;BME280;63628;47.656;11.310;2022-11-15T15:03:38;94119.22;;;10.13;72.25
75051;BME280;63628;47.656;11.310;2022-11-15T15:06:05;94134.28;;;10.12;73.30